sensor_id;sensor_type;location;lat;lon;timestamp;pressure;altitude;pressure_sealevel;temperature;humidity
48652;BME280;34442;52.362;-1.302;2023-06-19T00:01:46;99437.47;;;17.58;100.00
48652;BME280;34442;52.362;-1.302;2023-06-19T00:04:12;99441.78;;;17.59;100.00
48652;BME280;34442;52.362;-1.302;2023-06-19T00:06:37;99444.50;;;17.59;100.00
48652;BME280;34442;52.362;-1.302;2023-06-19T00:09:03;99445.31;;;17.59;100.00
48652;BME280;34442;52.362;-1.302;2023-06-19T00:11:29;99450.22;;;17.63;100.00
48652;BME280;34442;52.362;-1.302;2023-06-19T00:13:55;99446.16;;;17.55;100.00
48652;BME280;34442;52.362;-1.302;2023-06-19T00:16:20;99453.50;;;17.49;100.00
48652;BME280;34442;52.362;-1.302;2023-06-19T00:18:46;99457.03;;;17.50;100.00
48652;BME280;34442;52.362;-1.302;2023-06-19T00:21:11;99459.47;;;17.51;100.00
48652;BME280;34442;52.362;-1.302;2023-06-19T00:23:37;99469.00;;;17.44;100.00
48652;BME280;34442;52.362;-1.302;2023-06-19T00:26:03;99463.03;;;17.47;100.00
48652;BME280;34442;52.362;-1.302;2023-06-19T00:28:30;99457.03;;;17.50;100.00
48652;BME280;34442;52.362;-1.302;2023-06-19T00:30:55;99453.22;;;17.51;100.00
48652;BME280;34442;52.362;-1.302;2023-06-19T00:33:22;99453.78;;;17.48;100.00
48652;BME280;34442;52.362;-1.302;2023-06-19T00:35:50;99461.94;;;17.53;100.00
48652;BME280;34442;52.362;-1.302;2023-06-19T00:38:15;99459.19;;;17.63;100.00
48652;BME280;34442;52.362;-1.302;2023-06-19T00:40:41;99460.25;;;17.67;100.00
48652;BME280;34442;52.362;-1.302;2023-06-19T00:43:06;99462.97;;;17.67;100.00
48652;BME280;34442;52.362;-1.302;2023-06-19T00:45:32;99464.59;;;17.68;100.00
48652;BME280;34442;52.362;-1.302;2023-06-19T00:47:58;99462.69;;;17.69;100.00
48652;BME280;34442;52.362;-1.302;2023-06-19T00:50:24;99455.09;;;17.66;100.00
48652;BME280;34442;52.362;-1.302;2023-06-19T00:52:50;99454.00;;;17.67;100.00
48652;BME280;34442;52.362;-1.302;2023-06-19T00:55:17;99463.25;;;17.71;100.00
48652;BME280;34442;52.362;-1.302;2023-06-19T00:57:43;99460.25;;;17.67;100.00
48652;BME280;34442;52.362;-1.302;2023-06-19T01:00:10;99465.69;;;17.67;100.00
48652;BME280;34442;52.362;-1.302;2023-06-19T01:02:38;99464.88;;;17.72;100.00
48652;BME280;34442;52.362;-1.302;2023-06-19T01:05:04;99467.59;;;17.72;100.00
48652;BME280;34442;52.362;-1.302;2023-06-19T01:07:44;99471.13;;;17.77;100.00
48652;BME280;34442;52.362;-1.302;2023-06-19T01:10:14;99465.69;;;17.77;100.00
48652;BME280;34442;52.362;-1.302;2023-06-19T01:13:18;99475.75;;;17.82;100.00
48652;BME280;34442;52.362;-1.302;2023-06-19T01:15:46;99475.75;;;17.77;100.00
48652;BME280;34442;52.362;-1.302;2023-06-19T01:18:13;99469.50;;;17.66;100.00
48652;BME280;34442;52.362;-1.302;2023-06-19T01:20:40;99468.13;;;17.69;100.00
48652;BME280;34442;52.362;-1.302;2023-06-19T01:23:08;99464.31;;;17.65;100.00
48652;BME280;34442;52.362;-1.302;2023-06-19T01:25:33;99459.19;;;17.63;100.00
48652;BME280;34442;52.362;-1.302;2023-06-19T01:27:59;99466.25;;;17.59;100.00
48652;BME280;34442;52.362;-1.302;2023-06-19T01:30:24;99469.00;;;17.54;100.00
48652;BME280;34442;52.362;-1.302;2023-06-19T01:33:00;99470.63;;;17.50;100.00
48652;BME280;34442;52.362;-1.302;2023-06-19T01:35:33;99459.25;;;17.38;100.00
48652;BME280;34442;52.362;-1.302;2023-06-19T01:38:00;99458.16;;;17.33;100.00
48652;BME280;34442;52.362;-1.302;2023-06-19T01:40:27;99459.78;;;17.45;100.00
48652;BME280;34442;52.362;-1.302;2023-06-19T01:42:57;99454.31;;;17.40;100.00
48652;BME280;34442;52.362;-1.302;2023-06-19T01:45:24;99460.59;;;17.45;100.00
48652;BME280;34442;52.362;-1.302;2023-06-19T01:47:50;99455.41;;;17.44;100.00
48652;BME280;34442;52.362;-1.302;2023-06-19T01:50:15;99456.81;;;17.21;100.00
48652;BME280;34442;52.362;-1.302;2023-06-19T01:52:41;99461.97;;;17.17;100.00
48652;BME280;34442;52.362;-1.302;2023-06-19T01:55:07;99457.88;;;17.15;100.00
48652;BME280;34442;52.362;-1.302;2023-06-19T01:57:32;99457.91;;;17.09;100.00
48652;BME280;34442;52.362;-1.302;2023-06-19T01:59:58;99450.84;;;17.08;100.00
48652;BME280;34442;52.362;-1.302;2023-06-19T02:02:23;99453.56;;;17.08;100.00
48652;BME280;34442;52.362;-1.302;2023-06-19T02:04:49;99448.13;;;17.08;100.00
48652;BME280;34442;52.362;-1.302;2023-06-19T02:07:14;99446.75;;;17.06;100.00
48652;BME280;34442;52.362;-1.302;2023-06-19T02:09:40;99446.22;;;17.04;100.00
48652;BME280;34442;52.362;-1.302;2023-06-19T02:12:07;99448.69;;;17.00;100.00
48652;BME280;34442;52.362;-1.302;2023-06-19T02:14:32;99459.78;;;16.99;100.00
48652;BME280;34442;52.362;-1.302;2023-06-19T02:16:57;99462.50;;;16.99;100.00
48652;BME280;34442;52.362;-1.302;2023-06-19T02:19:23;99456.56;;;16.97;100.00
48652;BME280;34442;52.362;-1.302;2023-06-19T02:21:48;99465.22;;;16.99;100.00
48652;BME280;34442;52.362;-1.302;2023-06-19T02:24:14;99460.88;;;16.98;100.00
48652;BME280;34442;52.362;-1.302;2023-06-19T02:26:39;99466.31;;;16.98;100.00
48652;BME280;34442;52.362;-1.302;2023-06-19T02:29:04;99467.41;;;16.92;100.00
48652;BME280;34442;52.362;-1.302;2023-06-19T02:31:30;99462.50;;;16.94;100.00
48652;BME280;34442;52.362;-1.302;2023-06-19T02:33:55;99462.78;;;16.97;100.00
48652;BME280;34442;52.362;-1.302;2023-06-19T02:36:21;99461.97;;;16.97;100.00
48652;BME280;34442;52.362;-1.302;2023-06-19T02:38:47;99457.63;;;16.96;100.00
48652;BME280;34442;52.362;-1.302;2023-06-19T02:41:13;99465.75;;;16.91;100.00
48652;BME280;34442;52.362;-1.302;2023-06-19T02:43:42;99462.22;;;16.90;100.00
48652;BME280;34442;52.362;-1.302;2023-06-19T02:46:08;99468.47;;;16.91;100.00
48652;BME280;34442;52.362;-1.302;2023-06-19T02:48:33;99473.91;;;16.91;100.00
48652;BME280;34442;52.362;-1.302;2023-06-19T02:50:59;99470.94;;;16.92;100.00
48652;BME280;34442;52.362;-1.302;2023-06-19T02:53:24;99473.09;;;16.90;100.00
48652;BME280;34442;52.362;-1.302;2023-06-19T02:55:49;99471.47;;;16.89;100.00
48652;BME280;34442;52.362;-1.302;2023-06-19T02:58:15;99472.84;;;16.92;100.00
48652;BME280;34442;52.362;-1.302;2023-06-19T03:00:40;99483.69;;;16.86;100.00
48652;BME280;34442;52.362;-1.302;2023-06-19T03:03:06;99490.47;;;16.84;100.00
48652;BME280;34442;52.362;-1.302;2023-06-19T03:05:31;99499.16;;;16.86;100.00
48652;BME280;34442;52.362;-1.302;2023-06-19T03:07:56;99487.50;;;16.96;100.00
48652;BME280;34442;52.362;-1.302;2023-06-19T03:10:22;99493.75;;;17.01;100.00
48652;BME280;34442;52.362;-1.302;2023-06-19T03:12:47;99487.75;;;16.99;100.00
48652;BME280;34442;52.362;-1.302;2023-06-19T03:15:13;99490.75;;;16.98;100.00
48652;BME280;34442;52.362;-1.302;2023-06-19T03:17:39;99498.91;;;16.93;100.00
48652;BME280;34442;52.362;-1.302;2023-06-19T03:20:05;99495.34;;;16.77;100.00
48652;BME280;34442;52.362;-1.302;2023-06-19T03:22:31;99495.63;;;16.85;100.00
48652;BME280;34442;52.362;-1.302;2023-06-19T03:24:56;99498.34;;;16.91;100.00
48652;BME280;34442;52.362;-1.302;2023-06-19T03:27:22;99500.81;;;16.87;100.00
48652;BME280;34442;52.362;-1.302;2023-06-19T03:29:47;99508.66;;;16.83;100.00
48652;BME280;34442;52.362;-1.302;2023-06-19T03:32:12;99510.81;;;16.81;100.00
48652;BME280;34442;52.362;-1.302;2023-06-19T03:34:38;99508.63;;;16.73;100.00
48652;BME280;34442;52.362;-1.302;2023-06-19T03:37:03;99514.03;;;16.68;100.00
48652;BME280;34442;52.362;-1.302;2023-06-19T03:39:29;99522.69;;;16.65;100.00
48652;BME280;34442;52.362;-1.302;2023-06-19T03:41:55;99520.50;;;16.62;100.00
48652;BME280;34442;52.362;-1.302;2023-06-19T03:44:20;99522.13;;;16.58;100.00
48652;BME280;34442;52.362;-1.302;2023-06-19T03:46:46;99513.19;;;16.57;100.00
48652;BME280;34442;52.362;-1.302;2023-06-19T03:49:12;99524.84;;;16.58;100.00
48652;BME280;34442;52.362;-1.302;2023-06-19T03:51:38;99527.31;;;16.54;100.00
48652;BME280;34442;52.362;-1.302;2023-06-19T03:54:03;99521.59;;;16.56;100.00
48652;BME280;34442;52.362;-1.302;2023-06-19T03:56:29;99528.38;;;16.53;100.00
48652;BME280;34442;52.362;-1.302;2023-06-19T03:58:54;99519.97;;;16.55;100.00
48652;BME280;34442;52.362;-1.302;2023-06-19T04:01:19;99521.03;;;16.54;100.00
48652;BME280;34442;52.362;-1.302;2023-06-19T04:03:45;99525.38;;;16.50;100.00
48652;BME280;34442;52.362;-1.302;2023-06-19T04:06:10;99525.91;;;16.47;100.00
48652;BME280;34442;52.362;-1.302;2023-06-19T04:08:36;99522.66;;;16.50;100.00
48652;BME280;34442;52.362;-1.302;2023-06-19T04:11:01;99533.78;;;16.43;100.00
48652;BME280;34442;52.362;-1.302;2023-06-19T04:13:27;99547.34;;;16.43;100.00
48652;BME280;34442;52.362;-1.302;2023-06-19T04:15:52;99542.16;;;16.42;100.00
48652;BME280;34442;52.362;-1.302;2023-06-19T04:18:18;99549.19;;;16.37;100.00
48652;BME280;34442;52.362;-1.302;2023-06-19T04:20:43;99549.75;;;16.40;100.00
48652;BME280;34442;52.362;-1.302;2023-06-19T04:23:09;99555.72;;;16.36;100.00
48652;BME280;34442;52.362;-1.302;2023-06-19T04:25:34;99556.53;;;16.37;100.00
48652;BME280;34442;52.362;-1.302;2023-06-19T04:28:00;99557.88;;;16.34;100.00
48652;BME280;34442;52.362;-1.302;2023-06-19T04:30:29;99560.88;;;16.38;100.00
48652;BME280;34442;52.362;-1.302;2023-06-19T04:32:54;99564.41;;;16.38;100.00
48652;BME280;34442;52.362;-1.302;2023-06-19T04:35:20;99557.91;;;16.40;100.00
48652;BME280;34442;52.362;-1.302;2023-06-19T04:37:45;99555.47;;;16.43;100.00
48652;BME280;34442;52.362;-1.302;2023-06-19T04:40:13;99566.06;;;16.45;100.00
48652;BME280;34442;52.362;-1.302;2023-06-19T04:42:39;99572.56;;;16.44;100.00
48652;BME280;34442;52.362;-1.302;2023-06-19T04:45:05;99581.53;;;16.49;100.00
48652;BME280;34442;52.362;-1.302;2023-06-19T04:47:34;99573.97;;;16.51;100.00
48652;BME280;34442;52.362;-1.302;2023-06-19T04:50:00;99575.81;;;16.46;100.00
48652;BME280;34442;52.362;-1.302;2023-06-19T04:52:26;99579.91;;;16.48;100.00
48652;BME280;34442;52.362;-1.302;2023-06-19T04:54:51;99585.06;;;16.50;100.00
48652;BME280;34442;52.362;-1.302;2023-06-19T04:57:17;99590.47;;;16.50;100.00
48652;BME280;34442;52.362;-1.302;2023-06-19T04:59:43;99585.63;;;16.52;100.00
48652;BME280;34442;52.362;-1.302;2023-06-19T05:02:11;99587.53;;;16.51;100.00
48652;BME280;34442;52.362;-1.302;2023-06-19T05:04:37;99589.44;;;16.56;100.00
48652;BME280;34442;52.362;-1.302;2023-06-19T05:07:02;99586.19;;;16.59;100.00
48652;BME280;34442;52.362;-1.302;2023-06-19T05:09:28;99591.34;;;16.55;100.00
48652;BME280;34442;52.362;-1.302;2023-06-19T05:11:54;99593.53;;;16.58;100.00
48652;BME280;34442;52.362;-1.302;2023-06-19T05:14:19;99597.56;;;16.56;100.00
48652;BME280;34442;52.362;-1.302;2023-06-19T05:16:45;99595.44;;;16.63;100.00
48652;BME280;34442;52.362;-1.302;2023-06-19T05:19:10;99598.44;;;16.67;100.00
48652;BME280;34442;52.362;-1.302;2023-06-19T05:21:36;99597.59;;;16.66;100.00
48652;BME280;34442;52.362;-1.302;2023-06-19T05:24:01;99600.06;;;16.68;100.00
48652;BME280;34442;52.362;-1.302;2023-06-19T05:26:27;99602.78;;;16.68;100.00
48652;BME280;34442;52.362;-1.302;2023-06-19T05:28:52;99592.22;;;16.71;100.00
48652;BME280;34442;52.362;-1.302;2023-06-19T05:31:18;99612.59;;;16.74;100.00
48652;BME280;34442;52.362;-1.302;2023-06-19T05:33:44;99612.06;;;16.77;100.00
48652;BME280;34442;52.362;-1.302;2023-06-19T05:36:10;99609.06;;;16.78;100.00
48652;BME280;34442;52.362;-1.302;2023-06-19T05:38:35;99608.56;;;16.81;100.00
48652;BME280;34442;52.362;-1.302;2023-06-19T05:41:02;99612.91;;;16.82;100.00
48652;BME280;34442;52.362;-1.302;2023-06-19T05:43:27;99609.41;;;16.87;100.00
48652;BME280;34442;52.362;-1.302;2023-06-19T05:45:53;99613.22;;;16.91;100.00
48652;BME280;34442;52.362;-1.302;2023-06-19T05:48:20;99608.59;;;16.92;100.00
48652;BME280;34442;52.362;-1.302;2023-06-19T05:50:47;99603.47;;;16.95;100.00
48652;BME280;34442;52.362;-1.302;2023-06-19T05:53:12;99612.41;;;16.96;100.00
48652;BME280;34442;52.362;-1.302;2023-06-19T05:55:37;99612.41;;;17.01;100.00
48652;BME280;34442;52.362;-1.302;2023-06-19T05:58:03;99613.50;;;17.05;100.00
48652;BME280;34442;52.362;-1.302;2023-06-19T06:00:29;99619.47;;;17.07;100.00
48652;BME280;34442;52.362;-1.302;2023-06-19T06:02:56;99615.16;;;17.11;100.00
48652;BME280;34442;52.362;-1.302;2023-06-19T06:05:25;99616.22;;;17.10;100.00
48652;BME280;34442;52.362;-1.302;2023-06-19T06:07:51;99618.13;;;17.15;100.00
48652;BME280;34442;52.362;-1.302;2023-06-19T06:10:20;99617.09;;;17.21;100.00
48652;BME280;34442;52.362;-1.302;2023-06-19T06:12:45;99611.38;;;17.22;100.00
48652;BME280;34442;52.362;-1.302;2023-06-19T06:15:11;99613.00;;;17.18;100.00
48652;BME280;34442;52.362;-1.302;2023-06-19T06:17:36;99613.56;;;17.25;100.00
48652;BME280;34442;52.362;-1.302;2023-06-19T06:20:02;99614.13;;;17.32;100.00
48652;BME280;34442;52.362;-1.302;2023-06-19T06:22:35;99618.16;;;17.40;100.00
48652;BME280;34442;52.362;-1.302;2023-06-19T06:25:01;99620.63;;;17.42;100.00
48652;BME280;34442;52.362;-1.302;2023-06-19T06:27:27;99612.47;;;17.47;100.00
48652;BME280;34442;52.362;-1.302;2023-06-19T06:29:52;99614.13;;;17.63;100.00
48652;BME280;34442;52.362;-1.302;2023-06-19T06:32:18;99613.56;;;17.71;100.00
48652;BME280;34442;52.362;-1.302;2023-06-19T06:34:44;99623.38;;;17.88;100.00
48652;BME280;34442;52.362;-1.302;2023-06-19T06:37:09;99622.00;;;18.00;100.00
48652;BME280;34442;52.362;-1.302;2023-06-19T06:39:34;99622.81;;;18.11;100.00
48652;BME280;34442;52.362;-1.302;2023-06-19T06:42:00;99624.72;;;18.16;100.00
48652;BME280;34442;52.362;-1.302;2023-06-19T06:44:26;99631.50;;;18.23;100.00
48652;BME280;34442;52.362;-1.302;2023-06-19T06:46:51;99625.47;;;18.26;100.00
48652;BME280;34442;52.362;-1.302;2023-06-19T06:49:16;99631.19;;;18.30;100.00
48652;BME280;34442;52.362;-1.302;2023-06-19T06:51:42;99635.81;;;18.34;100.00
48652;BME280;34442;52.362;-1.302;2023-06-19T06:54:07;99634.19;;;18.33;100.00
48652;BME280;34442;52.362;-1.302;2023-06-19T06:56:33;99631.75;;;18.32;100.00
48652;BME280;34442;52.362;-1.302;2023-06-19T06:58:58;99629.00;;;18.37;100.00
48652;BME280;34442;52.362;-1.302;2023-06-19T07:01:24;99627.38;;;18.36;100.00
48652;BME280;34442;52.362;-1.302;2023-06-19T07:03:49;99629.84;;;18.27;100.00
48652;BME280;34442;52.362;-1.302;2023-06-19T07:06:14;99634.22;;;18.23;100.00
48652;BME280;34442;52.362;-1.302;2023-06-19T07:08:40;99633.66;;;18.26;100.00
48652;BME280;34442;52.362;-1.302;2023-06-19T07:11:07;99639.38;;;18.25;100.00
48652;BME280;34442;52.362;-1.302;2023-06-19T07:13:32;99646.19;;;18.27;100.00
48652;BME280;34442;52.362;-1.302;2023-06-19T07:15:57;99656.25;;;18.27;100.00
48652;BME280;34442;52.362;-1.302;2023-06-19T07:18:24;99657.81;;;18.43;100.00
48652;BME280;34442;52.362;-1.302;2023-06-19T07:20:52;99656.44;;;18.56;100.00
48652;BME280;34442;52.362;-1.302;2023-06-19T07:23:18;99656.97;;;18.73;100.00
48652;BME280;34442;52.362;-1.302;2023-06-19T07:25:48;99650.13;;;18.76;100.00
48652;BME280;34442;52.362;-1.302;2023-06-19T07:28:14;99655.03;;;18.79;100.00
48652;BME280;34442;52.362;-1.302;2023-06-19T07:30:40;99659.69;;;18.73;100.00
48652;BME280;34442;52.362;-1.302;2023-06-19T07:33:05;99656.13;;;18.68;100.00
48652;BME280;34442;52.362;-1.302;2023-06-19T07:35:30;99656.69;;;18.59;100.00
48652;BME280;34442;52.362;-1.302;2023-06-19T07:37:56;99655.88;;;18.59;100.00
48652;BME280;34442;52.362;-1.302;2023-06-19T07:40:21;99658.59;;;18.64;100.00
48652;BME280;34442;52.362;-1.302;2023-06-19T07:42:47;99657.50;;;18.70;100.00
48652;BME280;34442;52.362;-1.302;2023-06-19T07:45:13;99653.44;;;18.73;100.00
48652;BME280;34442;52.362;-1.302;2023-06-19T07:47:38;99656.97;;;18.73;100.00
48652;BME280;34442;52.362;-1.302;2023-06-19T07:50:04;99660.75;;;18.67;100.00
48652;BME280;34442;52.362;-1.302;2023-06-19T07:52:30;99662.66;;;18.67;100.00
48652;BME280;34442;52.362;-1.302;2023-06-19T07:54:56;99662.66;;;18.72;100.00
48652;BME280;34442;52.362;-1.302;2023-06-19T07:57:24;99663.47;;;18.67;100.00
48652;BME280;34442;52.362;-1.302;2023-06-19T07:59:50;99659.66;;;18.78;100.00
48652;BME280;34442;52.362;-1.302;2023-06-19T08:02:16;99662.97;;;18.70;100.00
48652;BME280;34442;52.362;-1.302;2023-06-19T08:04:41;99662.94;;;18.80;100.00
48652;BME280;34442;52.362;-1.302;2023-06-19T08:07:07;99660.34;;;19.09;100.00
48652;BME280;34442;52.362;-1.302;2023-06-19T08:09:32;99656.75;;;19.19;100.00
48652;BME280;34442;52.362;-1.302;2023-06-19T08:11:58;99659.63;;;19.38;100.00
48652;BME280;34442;52.362;-1.302;2023-06-19T08:14:23;99654.34;;;19.52;100.00
48652;BME280;34442;52.362;-1.302;2023-06-19T08:16:49;99651.38;;;19.48;100.00
48652;BME280;34442;52.362;-1.302;2023-06-19T08:19:14;99656.88;;;19.43;100.00
48652;BME280;34442;52.362;-1.302;2023-06-19T08:21:39;99655.19;;;19.47;100.00
48652;BME280;34442;52.362;-1.302;2023-06-19T08:24:05;99663.88;;;19.54;100.00
48652;BME280;34442;52.362;-1.302;2023-06-19T08:26:31;99662.41;;;19.72;100.00
48652;BME280;34442;52.362;-1.302;2023-06-19T08:28:56;99664.97;;;19.93;100.00
48652;BME280;34442;52.362;-1.302;2023-06-19T08:31:21;99673.22;;;19.82;100.00
48652;BME280;34442;52.362;-1.302;2023-06-19T08:33:53;99667.22;;;19.86;100.00
48652;BME280;34442;52.362;-1.302;2023-06-19T08:36:18;99676.66;;;19.98;100.00
48652;BME280;34442;52.362;-1.302;2023-06-19T08:38:44;99670.06;;;20.04;100.00
48652;BME280;34442;52.362;-1.302;2023-06-19T08:41:09;99675.03;;;19.97;100.00
48652;BME280;34442;52.362;-1.302;2023-06-19T08:43:35;99671.97;;;20.04;100.00
48652;BME280;34442;52.362;-1.302;2023-06-19T08:46:10;99668.91;;;20.11;100.00
48652;BME280;34442;52.362;-1.302;2023-06-19T08:48:37;99671.69;;;20.05;100.00
48652;BME280;34442;52.362;-1.302;2023-06-19T08:51:03;99671.16;;;19.69;100.00
48652;BME280;34442;52.362;-1.302;2023-06-19T08:53:32;99668.38;;;19.74;100.00
48652;BME280;34442;52.362;-1.302;2023-06-19T08:55:58;99671.97;;;20.04;100.00
48652;BME280;34442;52.362;-1.302;2023-06-19T08:58:24;99665.78;;;20.22;100.00
48652;BME280;34442;52.362;-1.302;2023-06-19T09:00:49;99660.00;;;20.29;100.00
48652;BME280;34442;52.362;-1.302;2023-06-19T09:03:20;99664.91;;;20.27;100.00
48652;BME280;34442;52.362;-1.302;2023-06-19T09:05:46;99676.47;;;20.19;100.00
48652;BME280;34442;52.362;-1.302;2023-06-19T09:08:15;99663.31;;;20.26;100.00
48652;BME280;34442;52.362;-1.302;2023-06-19T09:11:04;99674.41;;;20.35;100.00
48652;BME280;34442;52.362;-1.302;2023-06-19T09:13:31;99674.50;;;20.24;100.00
48652;BME280;34442;52.362;-1.302;2023-06-19T09:16:07;99672.16;;;20.42;100.00
48652;BME280;34442;52.362;-1.302;2023-06-19T09:18:47;99664.16;;;20.50;100.00
48652;BME280;34442;52.362;-1.302;2023-06-19T09:23:43;99670.75;;;20.44;100.00
48652;BME280;34442;52.362;-1.302;2023-06-19T09:26:08;99675.28;;;20.30;100.00
48652;BME280;34442;52.362;-1.302;2023-06-19T09:28:40;99673.47;;;20.20;100.00
48652;BME280;34442;52.362;-1.302;2023-06-19T09:31:06;99677.88;;;20.16;100.00
48652;BME280;34442;52.362;-1.302;2023-06-19T09:33:33;99685.13;;;20.26;100.00
48652;BME280;34442;52.362;-1.302;2023-06-19T09:36:02;99674.28;;;20.45;100.00
48652;BME280;34442;52.362;-1.302;2023-06-19T09:38:29;99681.53;;;20.30;100.00
48652;BME280;34442;52.362;-1.302;2023-06-19T09:40:56;99672.81;;;20.28;100.00
48652;BME280;34442;52.362;-1.302;2023-06-19T09:43:25;99684.91;;;20.75;100.00
48652;BME280;34442;52.362;-1.302;2023-06-19T09:45:55;99690.94;;;20.96;100.00
48652;BME280;34442;52.362;-1.302;2023-06-19T09:48:27;99692.22;;;21.23;100.00
48652;BME280;34442;52.362;-1.302;2023-06-19T09:50:55;99696.03;;;21.46;100.00
48652;BME280;34442;52.362;-1.302;2023-06-19T09:53:25;99690.50;;;21.51;100.00
48652;BME280;34442;52.362;-1.302;2023-06-19T09:55:50;99692.25;;;21.79;100.00
48652;BME280;34442;52.362;-1.302;2023-06-19T09:58:20;99689.16;;;21.86;100.00
48652;BME280;34442;52.362;-1.302;2023-06-19T10:00:46;99696.25;;;21.87;100.00
48652;BME280;34442;52.362;-1.302;2023-06-19T10:03:13;99694.75;;;21.95;100.00
48652;BME280;34442;52.362;-1.302;2023-06-19T10:05:39;99696.88;;;22.17;100.00
48652;BME280;34442;52.362;-1.302;2023-06-19T10:08:06;99692.84;;;22.28;100.00
48652;BME280;34442;52.362;-1.302;2023-06-19T10:10:32;99683.53;;;22.43;100.00
48652;BME280;34442;52.362;-1.302;2023-06-19T10:13:11;99690.53;;;22.49;100.00
48652;BME280;34442;52.362;-1.302;2023-06-19T10:15:43;99692.47;;;22.48;100.00
48652;BME280;34442;52.362;-1.302;2023-06-19T10:18:14;99691.97;;;22.60;100.00
48652;BME280;34442;52.362;-1.302;2023-06-19T10:20:41;99685.38;;;22.75;100.00
48652;BME280;34442;52.362;-1.302;2023-06-19T10:23:15;99686.19;;;22.89;100.00
48652;BME280;34442;52.362;-1.302;2023-06-19T10:25:44;99679.31;;;23.06;100.00
48652;BME280;34442;52.362;-1.302;2023-06-19T10:28:17;99682.94;;;23.15;100.00
48652;BME280;34442;52.362;-1.302;2023-06-19T10:30:43;99677.16;;;22.89;100.00
48652;BME280;34442;52.362;-1.302;2023-06-19T10:33:08;99677.44;;;23.15;100.00
48652;BME280;34442;52.362;-1.302;2023-06-19T10:35:40;99673.50;;;23.21;100.00
48652;BME280;34442;52.362;-1.302;2023-06-19T10:38:09;99673.03;;;23.41;100.00
48652;BME280;34442;52.362;-1.302;2023-06-19T10:40:36;99666.25;;;23.61;100.00
48652;BME280;34442;52.362;-1.302;2023-06-19T10:43:03;99672.47;;;23.89;100.00
48652;BME280;34442;52.362;-1.302;2023-06-19T10:45:29;99670.66;;;23.85;100.00
48652;BME280;34442;52.362;-1.302;2023-06-19T10:47:55;99674.84;;;23.46;100.00
48652;BME280;34442;52.362;-1.302;2023-06-19T10:50:21;99669.47;;;23.41;100.00
48652;BME280;34442;52.362;-1.302;2023-06-19T10:52:48;99671.91;;;23.42;100.00
48652;BME280;34442;52.362;-1.302;2023-06-19T10:55:17;99676.28;;;23.43;100.00
48652;BME280;34442;52.362;-1.302;2023-06-19T10:57:47;99671.47;;;23.49;100.00
48652;BME280;34442;52.362;-1.302;2023-06-19T11:00:23;99673.72;;;23.47;100.00
48652;BME280;34442;52.362;-1.302;2023-06-19T11:02:49;99675.81;;;23.27;100.00
48652;BME280;34442;52.362;-1.302;2023-06-19T11:05:15;99674.19;;;23.26;100.00
48652;BME280;34442;52.362;-1.302;2023-06-19T11:07:40;99671.75;;;23.25;100.00
48652;BME280;34442;52.362;-1.302;2023-06-19T11:10:06;99673.97;;;23.73;100.00
48652;BME280;34442;52.362;-1.302;2023-06-19T11:12:32;99672.78;;;23.88;100.00
48652;BME280;34442;52.362;-1.302;2023-06-19T11:15:04;99682.41;;;23.99;100.00
48652;BME280;34442;52.362;-1.302;2023-06-19T11:17:31;99668.53;;;24.04;100.00
48652;BME280;34442;52.362;-1.302;2023-06-19T11:19:57;99671.66;;;23.89;100.00
48652;BME280;34442;52.362;-1.302;2023-06-19T11:22:35;99672.66;;;23.93;100.00
48652;BME280;34442;52.362;-1.302;2023-06-19T11:25:03;99669.75;;;23.98;100.00
48652;BME280;34442;52.362;-1.302;2023-06-19T11:27:30;99662.19;;;23.95;100.00
48652;BME280;34442;52.362;-1.302;2023-06-19T11:29:56;99670.09;;;23.96;100.00
48652;BME280;34442;52.362;-1.302;2023-06-19T11:32:29;99663.16;;;23.99;100.00
48652;BME280;34442;52.362;-1.302;2023-06-19T11:34:56;99665.31;;;24.11;100.00
48652;BME280;34442;52.362;-1.302;2023-06-19T11:37:22;99665.63;;;24.09;100.00
48652;BME280;34442;52.362;-1.302;2023-06-19T11:39:49;99670.91;;;23.74;100.00
48652;BME280;34442;52.362;-1.302;2023-06-19T11:42:16;99661.22;;;23.41;100.00
48652;BME280;34442;52.362;-1.302;2023-06-19T11:45:00;99664.94;;;23.22;100.00
48652;BME280;34442;52.362;-1.302;2023-06-19T11:47:30;99668.13;;;23.02;100.00
48652;BME280;34442;52.362;-1.302;2023-06-19T11:49:56;99670.25;;;22.91;100.00
48652;BME280;34442;52.362;-1.302;2023-06-19T11:52:22;99665.38;;;22.88;100.00
48652;BME280;34442;52.362;-1.302;2023-06-19T11:54:47;99674.63;;;23.06;100.00
48652;BME280;34442;52.362;-1.302;2023-06-19T11:57:12;99658.66;;;23.08;100.00
48652;BME280;34442;52.362;-1.302;2023-06-19T11:59:41;99661.59;;;23.25;100.00
48652;BME280;34442;52.362;-1.302;2023-06-19T12:02:08;99655.72;;;23.18;100.00
48652;BME280;34442;52.362;-1.302;2023-06-19T12:04:34;99668.50;;;23.23;100.00
48652;BME280;34442;52.362;-1.302;2023-06-19T12:06:59;99660.34;;;23.32;100.00
48652;BME280;34442;52.362;-1.302;2023-06-19T12:09:25;99661.75;;;23.43;100.00
48652;BME280;34442;52.362;-1.302;2023-06-19T12:11:50;99653.56;;;23.29;100.00
48652;BME280;34442;52.362;-1.302;2023-06-19T12:14:16;99653.91;;;23.14;100.00
48652;BME280;34442;52.362;-1.302;2023-06-19T12:16:43;99663.25;;;22.99;100.00
48652;BME280;34442;52.362;-1.302;2023-06-19T12:19:10;99668.63;;;22.76;100.00
48652;BME280;34442;52.362;-1.302;2023-06-19T12:21:36;99663.84;;;22.82;100.00
48652;BME280;34442;52.362;-1.302;2023-06-19T12:24:01;99665.38;;;22.88;100.00
48652;BME280;34442;52.362;-1.302;2023-06-19T12:26:27;99660.69;;;23.16;100.00
48652;BME280;34442;52.362;-1.302;2023-06-19T12:28:52;99662.81;;;23.19;100.00
48652;BME280;34442;52.362;-1.302;2023-06-19T12:31:18;99661.06;;;23.37;100.00
48652;BME280;34442;52.362;-1.302;2023-06-19T12:33:43;99661.75;;;23.43;100.00
48652;BME280;34442;52.362;-1.302;2023-06-19T12:36:14;99663.22;;;23.49;100.00
48652;BME280;34442;52.362;-1.302;2023-06-19T12:38:40;99664.06;;;23.49;100.00
48652;BME280;34442;52.362;-1.302;2023-06-19T12:41:06;99660.13;;;23.42;100.00